East Enosburg, Vermont
Current Conditions -  °F | °C
As of 5:35 AM on Thursday 18 Dec 2014 (Local Time) from KFSO Reporting Station
Light Snow Light Snow  
Wind Chill: 26°   Ceiling: 300
Heat Index: 32°   Visibility: 1.5mi
Dew Point: 32°   Wind: 6mph
Humidity: 99%   Direction: 320°NW
Pressure: 29.78"   Gusts: NA
Location:  44.8764°N, 72.758°W
Report Text: KFSO 181035Z AUTO 32005KT 1 1/2SM -SN OVC003 00/00 A2978 RMK AO2 T00001002
Loading
Personal Weather Stations






























Interactive Weather Map New forecast layout! Learn more

10-Day Weather Forecast

Advertisements
Track Severe Weather on mobile